createdAt,value
2023-03-29T00:01:00.857Z,59.95
2023-03-29T00:03:31.051Z,60.26
2023-03-29T00:06:04.319Z,60.11
2023-03-29T00:08:38.370Z,59.95
2023-03-29T00:11:06.368Z,59.83
2023-03-29T00:13:34.956Z,60.03
2023-03-29T00:16:02.985Z,59.93
2023-03-29T00:18:30.966Z,60.10
2023-03-29T00:21:00.775Z,60.13
2023-03-29T00:23:29.145Z,60.18
2023-03-29T00:25:57.760Z,60.42
2023-03-29T00:28:26.003Z,60.12
2023-03-29T00:31:03.897Z,60.00
2023-03-29T00:33:32.384Z,60.32
2023-03-29T00:36:00.409Z,60.19
2023-03-29T00:38:28.760Z,60.41
2023-03-29T00:40:56.737Z,60.37
2023-03-29T00:43:25.696Z,60.21
2023-03-29T00:45:54.515Z,60.28
2023-03-29T00:48:27.365Z,60.19
2023-03-29T00:51:08.170Z,60.40
2023-03-29T00:53:43.654Z,60.35
2023-03-29T00:56:27.834Z,60.27
2023-03-29T00:59:18.863Z,60.43
2023-03-29T01:01:58.814Z,60.23
2023-03-29T01:04:42.833Z,60.69
2023-03-29T01:07:14.324Z,60.48
2023-03-29T01:09:46.135Z,60.79
2023-03-29T01:12:22.601Z,60.62
2023-03-29T01:15:04.530Z,60.68
2023-03-29T01:17:33.371Z,60.57
2023-03-29T01:20:23.708Z,60.65
2023-03-29T01:23:17.257Z,60.72
2023-03-29T01:25:59.369Z,60.73
2023-03-29T01:28:37.285Z,60.92
2023-03-29T01:31:09.387Z,61.05
2023-03-29T01:33:52.898Z,61.01
2023-03-29T01:36:37.418Z,60.93
2023-03-29T01:39:07.509Z,61.31
2023-03-29T01:41:48.404Z,61.81
2023-03-29T01:44:56.576Z,61.70
2023-03-29T01:47:27.974Z,62.11
2023-03-29T01:50:14.669Z,68.04
2023-03-29T01:53:04.391Z,73.52
2023-03-29T01:55:36.149Z,73.17
2023-03-29T01:58:08.561Z,69.21
2023-03-29T02:00:38.596Z,62.96
2023-03-29T02:03:09.244Z,58.16
2023-03-29T02:05:39.865Z,52.29
2023-03-29T02:08:10.948Z,50.32
2023-03-29T02:10:39.505Z,50.10
2023-03-29T02:13:07.556Z,50.72
2023-03-29T02:15:35.598Z,51.33
2023-03-29T02:18:06.842Z,51.71
2023-03-29T02:20:43.337Z,52.65
2023-03-29T02:23:18.853Z,53.92
2023-03-29T02:25:50.508Z,54.43
2023-03-29T02:28:18.624Z,54.83
2023-03-29T02:30:53.718Z,55.69
2023-03-29T02:33:42.262Z,56.08
2023-03-29T02:36:17.990Z,56.33
2023-03-29T02:38:46.537Z,57.14
2023-03-29T02:41:16.997Z,57.70
2023-03-29T02:43:47.810Z,58.87
2023-03-29T02:46:18.389Z,59.90
2023-03-29T02:48:49.697Z,59.83
2023-03-29T02:51:26.791Z,60.65
2023-03-29T02:54:10.896Z,61.74
2023-03-29T02:56:43.696Z,61.50
2023-03-29T02:59:12.889Z,64.62
2023-03-29T03:01:45.414Z,72.35
2023-03-29T03:04:15.156Z,73.27
2023-03-29T03:06:43.236Z,70.87
2023-03-29T03:09:11.919Z,67.84
2023-03-29T03:11:42.416Z,65.33
2023-03-29T03:14:11.139Z,63.47
2023-03-29T03:16:39.298Z,56.92
2023-03-29T03:19:07.711Z,50.77
2023-03-29T03:21:37.865Z,49.16
2023-03-29T03:24:07.775Z,49.44
2023-03-29T03:26:38.320Z,50.13
2023-03-29T03:29:06.744Z,51.09
2023-03-29T03:32:04.485Z,51.25
2023-03-29T03:34:59.288Z,52.21
2023-03-29T03:37:28.096Z,52.97
2023-03-29T03:39:56.782Z,54.01
2023-03-29T03:42:28.833Z,55.17
2023-03-29T03:44:57.610Z,55.47
2023-03-29T03:47:55.112Z,56.55
2023-03-29T03:50:36.660Z,57.19
2023-03-29T03:53:04.772Z,57.73
2023-03-29T03:55:56.084Z,58.97
2023-03-29T03:58:28.437Z,59.50
2023-03-29T04:00:56.358Z,60.31
2023-03-29T04:03:37.723Z,60.76
2023-03-29T04:06:06.973Z,61.13
2023-03-29T04:08:54.946Z,61.77
2023-03-29T04:11:33.832Z,68.28
2023-03-29T04:14:02.820Z,73.10
2023-03-29T04:16:43.180Z,72.37
2023-03-29T04:19:30.502Z,69.65
2023-03-29T04:21:58.982Z,66.13
2023-03-29T04:24:27.259Z,63.59
2023-03-29T04:27:15.194Z,59.03
2023-03-29T04:29:45.066Z,52.01
2023-03-29T04:32:22.120Z,50.26
2023-03-29T04:35:08.245Z,50.49
2023-03-29T04:37:37.294Z,51.55
2023-03-29T04:40:09.454Z,52.08
2023-03-29T04:42:48.272Z,52.84
2023-03-29T04:45:19.515Z,53.44
2023-03-29T04:48:08.554Z,55.28
2023-03-29T04:50:37.708Z,56.16
2023-03-29T04:53:06.274Z,57.66
2023-03-29T04:55:34.470Z,57.51
2023-03-29T04:58:03.349Z,58.16
2023-03-29T05:00:35.185Z,59.75
2023-03-29T05:03:07.654Z,60.79
2023-03-29T05:05:38.701Z,60.52
2023-03-29T05:08:09.741Z,60.66
2023-03-29T05:11:02.195Z,61.40
2023-03-29T05:13:30.456Z,66.08
2023-03-29T05:16:00.758Z,72.22
2023-03-29T05:18:30.042Z,70.75
2023-03-29T05:20:58.833Z,67.77
2023-03-29T05:23:28.916Z,65.37
2023-03-29T05:26:20.407Z,63.68
2023-03-29T05:28:51.762Z,56.32
2023-03-29T05:31:20.227Z,50.12
2023-03-29T05:33:52.103Z,49.68
2023-03-29T05:36:21.665Z,50.00
2023-03-29T05:38:51.205Z,51.53
2023-03-29T05:41:20.432Z,52.18
2023-03-29T05:44:07.604Z,54.32
2023-03-29T05:46:36.229Z,54.21
2023-03-29T05:49:04.584Z,55.02
2023-03-29T05:51:52.232Z,55.12
2023-03-29T05:54:20.288Z,56.28
2023-03-29T05:56:48.534Z,56.71
2023-03-29T05:59:18.399Z,57.36
2023-03-29T06:01:47.587Z,58.30
2023-03-29T06:04:19.227Z,58.79
2023-03-29T06:07:02.450Z,60.81
2023-03-29T06:09:32.376Z,60.24
2023-03-29T06:12:04.242Z,61.09
2023-03-29T06:14:32.855Z,61.55
2023-03-29T06:17:15.975Z,61.88
2023-03-29T06:19:44.957Z,65.26
2023-03-29T06:22:14.886Z,72.60
2023-03-29T06:24:43.735Z,67.33
2023-03-29T06:27:18.285Z,64.74
2023-03-29T06:29:48.280Z,60.79
2023-03-29T06:32:17.157Z,53.51
2023-03-29T06:34:51.472Z,48.70
2023-03-29T06:37:44.470Z,48.63
2023-03-29T06:40:19.279Z,49.66
2023-03-29T06:42:48.867Z,50.85
2023-03-29T06:45:38.974Z,51.36
2023-03-29T06:48:12.445Z,53.40
2023-03-29T06:50:42.088Z,55.18
2023-03-29T06:53:11.738Z,54.98
2023-03-29T06:55:41.375Z,56.39
2023-03-29T06:58:24.015Z,55.81
2023-03-29T07:00:53.908Z,57.61
2023-03-29T07:03:31.619Z,58.54
2023-03-29T07:06:04.003Z,59.21
2023-03-29T07:08:35.059Z,59.06
2023-03-29T07:11:07.179Z,60.51
2023-03-29T07:13:49.234Z,60.74
2023-03-29T07:16:19.735Z,60.44
2023-03-29T07:18:58.718Z,60.18
2023-03-29T07:21:50.455Z,60.39
2023-03-29T07:24:20.245Z,61.05
2023-03-29T07:27:03.433Z,60.36
2023-03-29T07:29:32.674Z,60.33
2023-03-29T07:32:01.010Z,61.37
2023-03-29T07:34:51.649Z,61.42
2023-03-29T07:37:32.930Z,60.78
2023-03-29T07:40:04.063Z,61.01
2023-03-29T07:42:47.940Z,60.75
2023-03-29T07:45:26.879Z,60.99
2023-03-29T07:48:01.267Z,61.51
2023-03-29T07:50:39.041Z,60.20
2023-03-29T07:53:07.359Z,59.65
2023-03-29T07:55:35.661Z,58.55
2023-03-29T07:58:12.411Z,57.91
2023-03-29T08:00:41.423Z,56.31
2023-03-29T08:03:28.865Z,56.10
2023-03-29T08:05:56.963Z,54.73
2023-03-29T08:08:25.270Z,54.50
2023-03-29T08:10:57.952Z,55.65
2023-03-29T08:13:42.094Z,56.01
2023-03-29T08:16:42.197Z,53.12
2023-03-29T08:19:14.232Z,52.84
2023-03-29T08:21:51.735Z,54.60
2023-03-29T08:24:21.077Z,52.10
2023-03-29T08:26:54.380Z,51.65
2023-03-29T08:29:22.475Z,51.63
2023-03-29T08:31:50.394Z,49.56
2023-03-29T08:34:18.611Z,52.13
2023-03-29T08:37:05.327Z,49.34
2023-03-29T08:39:41.208Z,47.17
2023-03-29T08:43:02.092Z,49.93
2023-03-29T08:46:09.261Z,51.59
2023-03-29T08:48:46.027Z,46.95
2023-03-29T08:51:23.729Z,45.40
2023-03-29T08:54:10.680Z,45.50
2023-03-29T08:57:17.106Z,40.60
2023-03-29T08:59:52.400Z,37.84
2023-03-29T09:02:26.353Z,41.16
2023-03-29T09:05:07.764Z,40.84
2023-03-29T09:07:53.415Z,39.98
2023-03-29T09:10:39.693Z,40.36
2023-03-29T09:13:22.932Z,38.83
2023-03-29T09:15:57.066Z,36.99
2023-03-29T09:18:47.857Z,35.68
2023-03-29T09:21:49.488Z,35.85
2023-03-29T09:24:37.559Z,37.05
2023-03-29T09:27:32.489Z,33.52
2023-03-29T09:30:17.044Z,36.92
2023-03-29T09:33:10.694Z,34.35
2023-03-29T09:36:01.513Z,36.24
2023-03-29T09:38:32.107Z,38.19
2023-03-29T09:41:21.374Z,36.64
2023-03-29T09:43:51.984Z,36.88
2023-03-29T09:46:28.360Z,36.02
2023-03-29T09:48:57.241Z,33.88
2023-03-29T09:51:30.051Z,31.32
2023-03-29T09:54:00.223Z,34.52
2023-03-29T09:56:46.699Z,28.01
2023-03-29T09:59:17.593Z,33.30
2023-03-29T10:01:45.893Z,30.90
2023-03-29T10:04:15.584Z,28.30
2023-03-29T10:06:50.400Z,27.77
2023-03-29T10:09:24.381Z,28.27
2023-03-29T10:12:02.280Z,31.77
2023-03-29T10:14:35.695Z,29.51
2023-03-29T10:17:11.700Z,27.92
2023-03-29T10:19:49.053Z,27.70
2023-03-29T10:22:23.194Z,25.61
2023-03-29T10:24:53.842Z,25.61
2023-03-29T10:27:27.971Z,26.98
2023-03-29T10:29:58.505Z,28.68
2023-03-29T10:32:38.542Z,29.09
2023-03-29T10:35:29.595Z,29.83
2023-03-29T10:37:59.510Z,30.28
2023-03-29T10:40:29.033Z,31.11
2023-03-29T10:43:11.383Z,31.34
2023-03-29T10:45:40.106Z,31.25
2023-03-29T10:48:16.108Z,32.58
2023-03-29T10:50:49.852Z,32.64
2023-03-29T10:53:26.284Z,34.72
2023-03-29T10:56:07.805Z,34.97
2023-03-29T10:58:44.830Z,34.25
2023-03-29T11:01:21.822Z,33.38
2023-03-29T11:04:08.081Z,31.39
2023-03-29T11:06:52.646Z,31.82
2023-03-29T11:09:39.430Z,33.70
2023-03-29T11:12:24.190Z,32.39
2023-03-29T11:15:04.735Z,35.26
2023-03-29T11:17:42.960Z,34.67
2023-03-29T11:20:22.422Z,33.24
2023-03-29T11:23:19.504Z,32.64
2023-03-29T11:26:09.814Z,33.72
2023-03-29T11:29:02.711Z,34.29
2023-03-29T11:31:40.956Z,30.54
2023-03-29T11:34:26.897Z,29.89
2023-03-29T11:37:07.763Z,30.51
2023-03-29T11:39:41.788Z,32.78
2023-03-29T11:42:21.501Z,33.41
2023-03-29T11:44:55.028Z,32.58
2023-03-29T11:47:29.068Z,32.71
2023-03-29T11:50:06.551Z,30.03
2023-03-29T11:52:40.900Z,31.63
2023-03-29T11:55:15.380Z,31.22
2023-03-29T11:58:00.050Z,30.28
2023-03-29T12:00:35.444Z,30.46
2023-03-29T12:03:22.257Z,32.26
2023-03-29T12:05:56.814Z,32.15
2023-03-29T12:08:31.311Z,32.05
2023-03-29T12:11:09.274Z,30.94
2023-03-29T12:13:43.910Z,32.96
2023-03-29T12:16:27.890Z,32.68
2023-03-29T12:18:59.006Z,32.52
2023-03-29T12:21:29.821Z,31.28
2023-03-29T12:23:59.368Z,33.15
2023-03-29T12:26:56.926Z,31.57
2023-03-29T12:29:44.820Z,30.60
2023-03-29T12:32:47.112Z,32.22
2023-03-29T12:36:03.265Z,33.50
2023-03-29T12:38:52.799Z,33.91
2023-03-29T12:41:41.750Z,32.25
2023-03-29T12:44:28.842Z,32.18
2023-03-29T12:47:02.280Z,31.60
2023-03-29T12:49:34.539Z,32.26
2023-03-29T12:52:22.110Z,33.32
2023-03-29T12:55:00.782Z,33.48
2023-03-29T13:02:00.847Z,33.13
2023-03-29T13:04:49.950Z,33.51
2023-03-29T13:07:28.110Z,31.24
2023-03-29T13:09:58.824Z,31.18
2023-03-29T13:12:44.728Z,31.25
2023-03-29T13:15:36.951Z,33.08
2023-03-29T13:18:36.928Z,32.29
2023-03-29T13:21:34.904Z,30.20
2023-03-29T13:24:46.971Z,33.35
2023-03-29T13:27:30.934Z,31.25
2023-03-29T13:30:25.154Z,32.02
2023-03-29T13:37:37.470Z,32.87
2023-03-29T13:40:34.961Z,32.92
2023-03-29T13:43:21.256Z,31.93
2023-03-29T13:46:22.971Z,31.61
2023-03-29T13:49:00.965Z,31.14
2023-03-29T13:51:40.526Z,33.31
2023-03-29T13:54:39.974Z,32.41
2023-03-29T13:57:33.003Z,32.92
2023-03-29T14:04:24.986Z,30.28
2023-03-29T14:06:57.969Z,31.90
2023-03-29T14:09:33.012Z,32.16
2023-03-29T14:12:05.973Z,31.14
2023-03-29T14:14:45.290Z,32.23
2023-03-29T14:24:55.018Z,31.52
2023-03-29T14:27:23.080Z,32.44
2023-03-29T14:29:52.584Z,31.64
2023-03-29T14:32:29.570Z,32.77
2023-03-29T14:34:58.248Z,33.10
2023-03-29T14:37:28.718Z,32.31
2023-03-29T14:39:58.996Z,32.91
2023-03-29T14:42:29.222Z,33.21
2023-03-29T14:45:04.271Z,33.08
2023-03-29T14:47:34.000Z,33.22
2023-03-29T14:50:04.052Z,33.36
2023-03-29T14:52:32.544Z,33.78
2023-03-29T14:55:02.420Z,33.41
2023-03-29T14:57:36.730Z,33.27
2023-03-29T15:00:22.233Z,31.21
2023-03-29T15:02:55.499Z,30.42
2023-03-29T15:05:37.832Z,32.68
2023-03-29T15:08:10.102Z,32.57
2023-03-29T15:10:39.039Z,33.35
2023-03-29T15:13:08.636Z,32.64
2023-03-29T15:15:39.195Z,32.91
2023-03-29T15:18:10.160Z,32.78
2023-03-29T15:20:40.498Z,32.90
2023-03-29T15:23:14.744Z,32.01
2023-03-29T15:25:58.894Z,33.16
2023-03-29T15:28:35.053Z,33.21
2023-03-29T15:31:10.987Z,33.11
2023-03-29T15:33:41.787Z,33.02
2023-03-29T15:36:12.568Z,33.26
2023-03-29T15:38:45.100Z,33.30
2023-03-29T15:41:14.805Z,33.70
2023-03-29T15:43:43.488Z,33.58
2023-03-29T15:46:14.074Z,32.62
2023-03-29T15:48:42.666Z,33.37
2023-03-29T15:51:15.242Z,34.34
2023-03-29T15:53:43.210Z,34.62
2023-03-29T15:56:18.312Z,34.37
2023-03-29T15:58:47.851Z,34.15
2023-03-29T16:01:36.705Z,34.17
2023-03-29T16:04:14.127Z,33.61
2023-03-29T16:06:43.816Z,33.54
2023-03-29T16:09:14.691Z,34.05
2023-03-29T16:11:45.455Z,33.42
2023-03-29T16:14:30.030Z,33.83
2023-03-29T16:17:00.163Z,33.91
2023-03-29T16:19:31.239Z,33.84
2023-03-29T16:22:02.490Z,33.92
2023-03-29T16:24:32.273Z,33.70
2023-03-29T16:27:01.655Z,33.95
2023-03-29T16:29:30.536Z,34.64
2023-03-29T16:31:58.785Z,34.77
2023-03-29T16:34:26.928Z,35.10
2023-03-29T16:36:55.076Z,35.19
2023-03-29T16:39:23.146Z,35.37
2023-03-29T16:41:51.409Z,35.28
2023-03-29T16:44:23.609Z,35.29
2023-03-29T16:46:58.064Z,35.47
2023-03-29T16:49:26.384Z,35.58
2023-03-29T16:51:54.596Z,35.88
2023-03-29T16:54:25.968Z,36.61
2023-03-29T16:56:54.285Z,37.10
2023-03-29T16:59:22.476Z,36.62
2023-03-29T17:01:50.850Z,37.26
2023-03-29T17:04:19.111Z,37.45
2023-03-29T17:06:47.509Z,37.21
2023-03-29T17:09:17.012Z,37.15
2023-03-29T17:11:45.764Z,37.68
2023-03-29T17:14:14.161Z,37.94
2023-03-29T17:16:42.338Z,38.57
2023-03-29T17:19:10.496Z,38.95
2023-03-29T17:21:38.596Z,39.42
2023-03-29T17:24:07.260Z,39.33
2023-03-29T17:26:36.208Z,39.98
2023-03-29T17:29:05.385Z,39.78
2023-03-29T17:31:36.855Z,39.80
2023-03-29T17:34:04.781Z,40.04
2023-03-29T17:36:33.927Z,40.76
2023-03-29T17:39:02.869Z,40.86
2023-03-29T17:41:31.323Z,41.38
2023-03-29T17:43:59.833Z,41.93
2023-03-29T17:46:28.443Z,41.82
2023-03-29T17:48:59.330Z,42.15
2023-03-29T17:51:28.217Z,42.14
2023-03-29T17:53:57.328Z,42.37
2023-03-29T17:56:26.749Z,42.74
2023-03-29T17:58:56.326Z,43.00
2023-03-29T18:01:24.455Z,43.00
2023-03-29T18:03:52.602Z,43.17
2023-03-29T18:06:21.187Z,43.43
2023-03-29T18:08:49.431Z,43.63
2023-03-29T18:11:22.617Z,43.84
2023-03-29T18:13:51.885Z,43.73
2023-03-29T18:16:23.566Z,43.65
2023-03-29T18:18:52.098Z,44.21
2023-03-29T18:21:20.262Z,44.32
2023-03-29T18:23:50.140Z,44.30
2023-03-29T18:26:18.434Z,44.44
2023-03-29T18:28:47.470Z,44.27
2023-03-29T18:31:16.301Z,44.08
2023-03-29T18:33:44.698Z,44.10
2023-03-29T18:36:13.884Z,44.05
2023-03-29T18:38:44.077Z,44.15
2023-03-29T18:41:14.078Z,43.97
2023-03-29T18:43:43.471Z,44.07
2023-03-29T18:46:11.549Z,44.12
2023-03-29T18:48:40.079Z,44.48
2023-03-29T18:51:10.366Z,44.55
2023-03-29T18:53:41.611Z,44.50
2023-03-29T18:56:09.722Z,44.86
2023-03-29T18:58:37.717Z,45.03
2023-03-29T19:01:07.100Z,45.20
2023-03-29T19:03:35.870Z,45.31
2023-03-29T19:06:04.909Z,45.39
2023-03-29T19:08:34.486Z,45.53
2023-03-29T19:11:04.912Z,45.71
2023-03-29T19:13:33.994Z,45.70
2023-03-29T19:16:03.048Z,45.74
2023-03-29T19:18:31.690Z,46.03
2023-03-29T19:20:59.891Z,46.39
2023-03-29T19:23:28.541Z,46.60
2023-03-29T19:26:00.296Z,46.48
2023-03-29T19:28:29.500Z,46.47
2023-03-29T19:30:59.990Z,46.26
2023-03-29T19:33:29.531Z,46.47
2023-03-29T19:35:57.849Z,46.52
2023-03-29T19:38:41.549Z,46.47
2023-03-29T19:41:11.682Z,46.86
2023-03-29T19:43:39.736Z,47.20
2023-03-29T19:46:10.984Z,47.25
2023-03-29T19:48:39.940Z,47.33
2023-03-29T19:51:09.077Z,47.70
2023-03-29T19:53:38.688Z,47.75
2023-03-29T19:56:10.974Z,47.62
2023-03-29T19:58:39.430Z,47.80
2023-03-29T20:01:07.581Z,47.43
2023-03-29T20:03:36.305Z,47.38
2023-03-29T20:06:04.858Z,47.39
2023-03-29T20:08:33.202Z,47.81
2023-03-29T20:11:07.375Z,47.80
2023-03-29T20:13:38.908Z,48.09
2023-03-29T20:16:10.664Z,47.99
2023-03-29T20:18:39.561Z,48.03
2023-03-29T20:21:09.460Z,48.80
2023-03-29T20:23:38.044Z,48.68
2023-03-29T20:26:07.473Z,48.58
2023-03-29T20:28:38.016Z,48.73
2023-03-29T20:31:10.657Z,48.66
2023-03-29T20:33:39.537Z,49.21
2023-03-29T20:36:08.832Z,49.00
2023-03-29T20:38:37.762Z,49.33
2023-03-29T20:41:09.570Z,49.44
2023-03-29T20:43:38.048Z,49.01
2023-03-29T20:46:14.802Z,49.21
2023-03-29T20:48:53.012Z,49.43
2023-03-29T20:51:22.782Z,49.28
2023-03-29T20:53:50.945Z,49.49
2023-03-29T20:56:19.473Z,49.36
2023-03-29T20:58:47.727Z,49.59
2023-03-29T21:01:15.803Z,49.70
2023-03-29T21:03:43.934Z,49.23
2023-03-29T21:06:14.498Z,49.42
2023-03-29T21:08:46.062Z,49.40
2023-03-29T21:11:15.534Z,49.79
2023-03-29T21:13:44.281Z,50.01
2023-03-29T21:16:13.360Z,50.16
2023-03-29T21:18:41.890Z,50.18
2023-03-29T21:21:12.112Z,50.23
2023-03-29T21:23:40.216Z,50.28
2023-03-29T21:26:08.911Z,50.54
2023-03-29T21:28:37.877Z,50.42
2023-03-29T21:31:06.841Z,50.36
2023-03-29T21:33:36.404Z,50.89
2023-03-29T21:36:05.190Z,50.58
2023-03-29T21:38:33.234Z,51.23
2023-03-29T21:41:02.722Z,51.41
2023-03-29T21:43:31.220Z,51.69
2023-03-29T21:45:59.479Z,51.37
2023-03-29T21:48:27.564Z,51.28
2023-03-29T21:50:55.493Z,51.34
2023-03-29T21:53:24.790Z,51.58
2023-03-29T21:55:52.994Z,51.45
2023-03-29T21:58:21.474Z,51.85
2023-03-29T22:00:49.557Z,51.72
2023-03-29T22:03:17.716Z,51.78
2023-03-29T22:05:56.754Z,51.67
2023-03-29T22:08:26.554Z,51.76
2023-03-29T22:10:57.060Z,51.87
2023-03-29T22:13:27.444Z,52.27
2023-03-29T22:16:00.448Z,52.37
2023-03-29T22:18:30.310Z,52.79
2023-03-29T22:20:58.202Z,52.82
2023-03-29T22:23:26.261Z,52.97
2023-03-29T22:25:54.233Z,53.17
2023-03-29T22:28:22.636Z,53.23
2023-03-29T22:30:50.572Z,53.15
2023-03-29T22:33:18.532Z,53.79
2023-03-29T22:35:46.678Z,53.60
2023-03-29T22:38:14.671Z,53.22
2023-03-29T22:40:42.641Z,53.18
2023-03-29T22:43:10.645Z,53.10
2023-03-29T22:45:38.818Z,53.29
2023-03-29T22:48:06.864Z,53.42
2023-03-29T22:50:34.872Z,53.58
2023-03-29T22:53:02.906Z,53.43
2023-03-29T22:55:30.871Z,53.50
2023-03-29T22:57:59.086Z,53.66
2023-03-29T23:00:27.308Z,53.54
2023-03-29T23:02:55.429Z,53.37
2023-03-29T23:05:23.512Z,53.41
2023-03-29T23:07:51.626Z,53.24
2023-03-29T23:10:19.901Z,53.13
2023-03-29T23:12:49.821Z,53.03
2023-03-29T23:15:17.899Z,53.37
2023-03-29T23:17:45.876Z,53.39
2023-03-29T23:20:14.129Z,53.30
2023-03-29T23:22:42.098Z,53.29
2023-03-29T23:25:10.285Z,53.31
2023-03-29T23:27:38.450Z,53.40
2023-03-29T23:30:08.268Z,53.35
2023-03-29T23:32:36.257Z,53.75
2023-03-29T23:35:04.715Z,53.67
2023-03-29T23:37:32.878Z,53.44
2023-03-29T23:40:00.857Z,53.59
2023-03-29T23:42:29.535Z,53.59
2023-03-29T23:44:58.119Z,53.51
2023-03-29T23:47:27.146Z,53.58
2023-03-29T23:49:55.183Z,53.86
2023-03-29T23:52:23.456Z,53.97
2023-03-29T23:54:51.431Z,53.71
2023-03-29T23:57:20.341Z,53.64
2023-03-29T23:59:52.783Z,53.84
